createdAt,value
2018-01-07T00:02:21.545Z,4.77
2018-01-07T00:04:51.298Z,4.70
2018-01-07T00:07:20.501Z,4.65
2018-01-07T00:09:51.566Z,4.68
2018-01-07T00:12:21.601Z,4.70
2018-01-07T00:14:50.584Z,4.75
2018-01-07T00:17:19.738Z,4.76
2018-01-07T00:19:48.681Z,4.75
2018-01-07T00:22:17.919Z,4.71
2018-01-07T00:24:48.948Z,4.68
2018-01-07T00:27:18.000Z,4.69
2018-01-07T00:29:47.366Z,4.78
2018-01-07T00:32:19.618Z,4.82
2018-01-07T00:34:48.897Z,4.83
2018-01-07T00:37:20.388Z,4.83
2018-01-07T00:39:50.442Z,4.83
2018-01-07T00:42:23.583Z,4.85
2018-01-07T00:44:52.648Z,5.09
2018-01-07T00:47:22.417Z,5.42
2018-01-07T00:49:52.241Z,5.67
2018-01-07T00:52:21.243Z,5.92
2018-01-07T00:54:51.906Z,6.13
2018-01-07T00:57:23.633Z,6.22
2018-01-07T00:59:52.725Z,6.17
2018-01-07T01:02:21.993Z,6.03
2018-01-07T01:04:53.783Z,5.95
2018-01-07T01:07:23.305Z,5.86
2018-01-07T01:09:59.105Z,5.86
2018-01-07T01:12:28.549Z,5.85
2018-01-07T01:14:59.036Z,5.83
2018-01-07T01:17:29.034Z,5.79
2018-01-07T01:19:58.121Z,5.80
2018-01-07T01:22:27.226Z,5.85
2018-01-07T01:24:57.256Z,5.92
2018-01-07T01:27:27.450Z,6.01
2018-01-07T01:29:57.012Z,6.09
2018-01-07T01:32:33.705Z,6.12
2018-01-07T01:35:03.303Z,6.20
2018-01-07T01:37:33.432Z,6.22
2018-01-07T01:40:02.438Z,6.18
2018-01-07T01:42:31.570Z,6.09
2018-01-07T01:45:01.672Z,6.08
2018-01-07T01:47:31.972Z,6.17
2018-01-07T01:50:01.174Z,6.11
2018-01-07T01:52:30.313Z,6.11
2018-01-07T01:54:59.418Z,6.19
2018-01-07T01:57:28.562Z,6.23
2018-01-07T01:59:57.547Z,6.16
2018-01-07T02:02:27.598Z,6.05
2018-01-07T02:04:57.651Z,5.98
2018-01-07T02:07:27.742Z,5.90
2018-01-07T02:09:58.063Z,5.90
2018-01-07T02:12:27.363Z,5.86
2018-01-07T02:14:56.567Z,5.79
2018-01-07T02:17:25.546Z,5.72
2018-01-07T02:19:55.981Z,5.64
2018-01-07T02:22:25.850Z,5.57
2018-01-07T02:24:55.812Z,5.53
2018-01-07T02:27:25.023Z,5.52
2018-01-07T02:29:55.355Z,5.51
2018-01-07T02:32:24.546Z,5.56
2018-01-07T02:34:53.555Z,5.58
2018-01-07T02:37:23.777Z,5.53
2018-01-07T02:39:53.096Z,5.48
2018-01-07T02:42:22.110Z,5.43
2018-01-07T02:44:52.865Z,5.40
2018-01-07T02:47:21.849Z,5.40
2018-01-07T02:49:51.814Z,5.37
2018-01-07T02:52:22.604Z,5.42
2018-01-07T02:54:52.825Z,5.41
2018-01-07T02:57:21.908Z,5.47
2018-01-07T02:59:52.745Z,5.46
2018-01-07T03:02:22.669Z,5.48
2018-01-07T03:04:52.207Z,5.43
2018-01-07T03:07:23.240Z,5.39
2018-01-07T03:09:54.285Z,5.34
2018-01-07T03:12:27.033Z,5.35
2018-01-07T03:14:57.152Z,5.39
2018-01-07T03:17:28.934Z,5.41
2018-01-07T03:19:58.824Z,5.43
2018-01-07T03:22:27.781Z,5.47
2018-01-07T03:24:57.118Z,5.49
2018-01-07T03:27:26.216Z,5.53
2018-01-07T03:29:55.211Z,5.51
2018-01-07T03:32:28.154Z,5.47
2018-01-07T03:34:57.113Z,5.42
2018-01-07T03:37:26.203Z,5.38
2018-01-07T03:39:56.027Z,5.33
2018-01-07T03:42:26.121Z,5.27
2018-01-07T03:44:56.858Z,5.30
2018-01-07T03:47:25.966Z,5.28
2018-01-07T03:49:55.074Z,5.29
2018-01-07T03:52:24.156Z,5.34
2018-01-07T03:54:53.247Z,5.34
2018-01-07T03:57:22.169Z,5.33
2018-01-07T03:59:52.152Z,5.34
2018-01-07T04:02:21.121Z,5.43
2018-01-07T04:04:50.335Z,5.59
2018-01-07T04:07:20.263Z,5.68
2018-01-07T04:09:49.403Z,5.83
2018-01-07T04:12:18.500Z,5.93
2018-01-07T04:14:49.503Z,6.08
2018-01-07T04:17:18.485Z,6.21
2018-01-07T04:19:47.427Z,6.42
2018-01-07T04:22:17.330Z,6.60
2018-01-07T04:24:46.426Z,6.65
2018-01-07T04:27:16.307Z,6.72
2018-01-07T04:29:46.270Z,6.80
2018-01-07T04:32:22.123Z,6.83
2018-01-07T04:34:51.230Z,6.86
2018-01-07T04:37:20.324Z,6.88
2018-01-07T04:39:49.529Z,6.91
2018-01-07T04:42:18.519Z,6.87
2018-01-07T04:44:48.415Z,6.79
2018-01-07T04:47:18.107Z,6.81
2018-01-07T04:49:48.765Z,6.80
2018-01-07T04:52:17.933Z,6.80
2018-01-07T04:54:46.908Z,6.83
2018-01-07T04:57:18.357Z,6.75
2018-01-07T04:59:47.472Z,6.61
2018-01-07T05:02:17.980Z,6.47
2018-01-07T05:04:47.202Z,6.36
2018-01-07T05:07:17.728Z,6.25
2018-01-07T05:09:46.826Z,6.19
2018-01-07T05:12:19.339Z,6.16
2018-01-07T05:14:48.536Z,6.16
2018-01-07T05:17:17.477Z,6.18
2018-01-07T05:19:46.594Z,6.16
2018-01-07T05:22:15.782Z,6.09
2018-01-07T05:24:45.745Z,6.14
2018-01-07T05:27:14.885Z,6.27
2018-01-07T05:29:45.778Z,6.29
2018-01-07T05:32:14.917Z,6.35
2018-01-07T05:34:46.742Z,6.46
2018-01-07T05:37:15.720Z,6.44
2018-01-07T05:39:44.631Z,6.57
2018-01-07T05:42:13.929Z,6.70
2018-01-07T05:44:42.819Z,6.76
2018-01-07T05:47:11.705Z,6.82
2018-01-07T05:49:40.951Z,6.93
2018-01-07T05:52:10.063Z,7.01
2018-01-07T05:54:39.960Z,7.17
2018-01-07T05:57:10.099Z,7.15
2018-01-07T05:59:40.098Z,7.16
2018-01-07T06:02:09.187Z,7.16
2018-01-07T06:04:38.304Z,7.23
2018-01-07T06:07:08.322Z,7.27
2018-01-07T06:09:37.299Z,7.26
2018-01-07T06:12:07.317Z,7.21
2018-01-07T06:14:36.272Z,7.20
2018-01-07T06:17:05.422Z,7.19
2018-01-07T06:19:35.218Z,7.24
2018-01-07T06:22:04.232Z,7.36
2018-01-07T06:24:34.153Z,7.38
2018-01-07T06:27:03.342Z,7.46
2018-01-07T06:29:32.282Z,7.54
2018-01-07T06:32:01.308Z,7.64
2018-01-07T06:34:30.428Z,7.72
2018-01-07T06:36:59.520Z,7.79
2018-01-07T06:39:29.427Z,7.87
2018-01-07T06:41:58.769Z,8.00
2018-01-07T06:44:28.427Z,8.08
2018-01-07T06:46:57.388Z,8.06
2018-01-07T06:49:27.990Z,8.07
2018-01-07T06:51:57.013Z,8.06
2018-01-07T06:54:26.985Z,8.08
2018-01-07T06:56:58.718Z,8.15
2018-01-07T06:59:27.869Z,8.13
2018-01-07T07:01:56.976Z,8.18
2018-01-07T07:04:26.475Z,8.19
2018-01-07T07:06:55.639Z,8.22
2018-01-07T07:09:24.571Z,8.29
2018-01-07T07:11:54.625Z,8.36
2018-01-07T07:14:23.639Z,8.43
2018-01-07T07:16:52.756Z,8.63
2018-01-07T07:19:27.328Z,8.72
2018-01-07T07:21:57.578Z,8.82
2018-01-07T07:24:26.504Z,8.86
2018-01-07T07:27:00.388Z,8.88
2018-01-07T07:29:30.401Z,9.00
2018-01-07T07:31:59.427Z,9.10
2018-01-07T07:34:28.514Z,9.18
2018-01-07T07:36:57.636Z,9.34
2018-01-07T07:39:26.635Z,9.45
2018-01-07T07:41:56.046Z,9.46
2018-01-07T07:44:25.120Z,9.52
2018-01-07T07:46:54.019Z,9.59
2018-01-07T07:49:23.316Z,9.65
2018-01-07T07:51:52.484Z,9.72
2018-01-07T07:54:21.411Z,9.78
2018-01-07T07:56:58.255Z,9.89
2018-01-07T07:59:27.136Z,9.91
2018-01-07T08:01:56.152Z,9.95
2018-01-07T08:04:25.333Z,10.03
2018-01-07T08:06:54.239Z,10.11
2018-01-07T08:09:24.110Z,10.18
2018-01-07T08:11:54.075Z,10.20
2018-01-07T08:14:25.000Z,10.24
2018-01-07T08:16:56.975Z,10.30
2018-01-07T08:19:26.068Z,10.32
2018-01-07T08:21:55.270Z,10.30
2018-01-07T08:24:25.401Z,10.36
2018-01-07T08:26:54.418Z,10.37
2018-01-07T08:29:23.420Z,10.39
2018-01-07T08:31:52.311Z,10.45
2018-01-07T08:34:21.323Z,10.45
2018-01-07T08:36:50.358Z,10.55
2018-01-07T08:39:19.309Z,10.55
2018-01-07T08:41:49.982Z,10.58
2018-01-07T08:44:19.841Z,10.58
2018-01-07T08:46:48.792Z,10.58
2018-01-07T08:49:17.929Z,10.68
2018-01-07T08:51:46.966Z,10.69
2018-01-07T08:54:16.797Z,10.75
2018-01-07T08:56:52.785Z,10.79
2018-01-07T08:59:24.952Z,10.90
2018-01-07T09:01:54.662Z,10.95
2018-01-07T09:04:23.715Z,11.03
2018-01-07T09:06:52.686Z,11.02
2018-01-07T09:09:23.689Z,11.09
2018-01-07T09:11:54.831Z,11.13
2018-01-07T09:14:24.387Z,11.13
2018-01-07T09:16:54.361Z,11.27
2018-01-07T09:19:23.517Z,11.21
2018-01-07T09:21:52.751Z,11.20
2018-01-07T09:24:22.439Z,11.24
2018-01-07T09:26:51.431Z,11.33
2018-01-07T09:29:20.450Z,11.36
2018-01-07T09:31:49.648Z,11.36
2018-01-07T09:34:19.131Z,11.45
2018-01-07T09:36:48.250Z,11.55
2018-01-07T09:39:18.064Z,11.63
2018-01-07T09:41:47.110Z,11.62
2018-01-07T09:44:16.124Z,11.61
2018-01-07T09:46:45.149Z,11.64
2018-01-07T09:49:14.078Z,11.71
2018-01-07T09:51:43.167Z,11.78
2018-01-07T09:54:13.457Z,11.76
2018-01-07T09:56:44.113Z,11.75
2018-01-07T09:59:13.122Z,11.81
2018-01-07T10:01:42.083Z,11.87
2018-01-07T10:04:16.406Z,11.90
2018-01-07T10:06:47.071Z,11.89
2018-01-07T10:09:16.066Z,11.99
2018-01-07T10:11:46.042Z,12.05
2018-01-07T10:14:15.956Z,12.06
2018-01-07T10:16:45.022Z,12.12
2018-01-07T10:19:14.095Z,12.23
2018-01-07T10:21:43.862Z,12.33
2018-01-07T10:24:13.264Z,12.38
2018-01-07T10:26:42.328Z,12.42
2018-01-07T10:29:12.069Z,12.42
2018-01-07T10:31:41.171Z,12.50
2018-01-07T10:34:11.806Z,12.44
2018-01-07T10:36:43.739Z,12.47
2018-01-07T10:39:16.624Z,12.59
2018-01-07T10:41:46.363Z,12.64
2018-01-07T10:44:16.448Z,12.72
2018-01-07T10:46:50.180Z,12.73
2018-01-07T10:49:19.177Z,12.67
2018-01-07T10:51:49.201Z,12.68
2018-01-07T10:54:18.493Z,12.78
2018-01-07T10:56:48.293Z,12.85
2018-01-07T10:59:17.297Z,12.94
2018-01-07T11:01:52.032Z,12.97
2018-01-07T11:04:21.022Z,12.98
2018-01-07T11:06:49.954Z,13.09
2018-01-07T11:09:19.096Z,13.18
2018-01-07T11:11:50.061Z,13.20
2018-01-07T11:14:20.888Z,13.29
2018-01-07T11:16:55.085Z,13.28
2018-01-07T11:19:23.975Z,13.26
2018-01-07T11:21:53.792Z,13.28
2018-01-07T11:24:25.586Z,13.31
2018-01-07T11:26:54.646Z,13.39
2018-01-07T11:29:23.741Z,13.48
2018-01-07T11:31:52.825Z,13.49
2018-01-07T11:34:21.831Z,13.58
2018-01-07T11:36:51.726Z,13.63
2018-01-07T11:39:23.554Z,13.66
2018-01-07T11:41:52.551Z,13.65
2018-01-07T11:44:21.539Z,13.63
2018-01-07T11:46:51.819Z,13.57
2018-01-07T11:49:22.695Z,13.65
2018-01-07T11:51:51.650Z,13.62
2018-01-07T11:54:25.941Z,13.64
2018-01-07T11:56:54.860Z,13.67
2018-01-07T11:59:25.799Z,13.74
2018-01-07T12:01:54.790Z,13.84
2018-01-07T12:04:26.448Z,13.87
2018-01-07T12:06:57.067Z,13.90
2018-01-07T12:09:26.812Z,13.93
2018-01-07T12:11:55.784Z,13.96
2018-01-07T12:14:26.785Z,14.01
2018-01-07T12:17:00.698Z,13.99
2018-01-07T12:19:29.816Z,13.98
2018-01-07T12:21:58.721Z,14.00
2018-01-07T12:24:28.638Z,14.01
2018-01-07T12:26:57.631Z,14.03
2018-01-07T12:29:26.524Z,14.00
2018-01-07T12:31:55.662Z,14.03
2018-01-07T12:34:25.473Z,14.05
2018-01-07T12:36:54.527Z,14.05
2018-01-07T12:39:23.522Z,14.12
2018-01-07T12:41:52.515Z,14.12
2018-01-07T12:44:22.565Z,14.19
2018-01-07T12:46:52.510Z,14.25
2018-01-07T12:49:21.652Z,14.31
2018-01-07T12:51:50.746Z,14.26
2018-01-07T12:54:19.738Z,14.28
2018-01-07T12:56:52.585Z,14.27
2018-01-07T12:59:21.618Z,14.31
2018-01-07T13:01:50.498Z,14.32
2018-01-07T13:04:19.505Z,14.29
2018-01-07T13:06:48.565Z,14.29
2018-01-07T13:09:20.217Z,14.34
2018-01-07T13:11:49.594Z,14.34
2018-01-07T13:14:20.234Z,14.35
2018-01-07T13:16:49.995Z,14.36
2018-01-07T13:19:20.018Z,14.32
2018-01-07T13:21:49.274Z,14.32
2018-01-07T13:24:18.375Z,14.35
2018-01-07T13:26:47.653Z,14.32
2018-01-07T13:29:16.566Z,14.35
2018-01-07T13:31:45.602Z,14.39
2018-01-07T13:34:16.236Z,14.35
2018-01-07T13:36:46.053Z,14.32
2018-01-07T13:39:16.062Z,14.37
2018-01-07T13:41:45.056Z,14.35
2018-01-07T13:44:14.974Z,14.33
2018-01-07T13:46:44.684Z,14.36
2018-01-07T13:49:15.585Z,14.37
2018-01-07T13:51:44.554Z,14.36
2018-01-07T13:54:13.513Z,14.34
2018-01-07T13:56:45.988Z,14.34
2018-01-07T13:59:15.146Z,14.28
2018-01-07T14:01:46.944Z,14.24
2018-01-07T14:04:16.043Z,14.16
2018-01-07T14:06:45.037Z,14.13
2018-01-07T14:09:16.468Z,14.07
2018-01-07T14:11:46.498Z,14.07
2018-01-07T14:14:15.599Z,14.04
2018-01-07T14:16:45.694Z,13.99
2018-01-07T14:19:15.773Z,13.90
2018-01-07T14:21:44.730Z,13.88
2018-01-07T14:24:15.519Z,13.84
2018-01-07T14:26:44.775Z,13.71
2018-01-07T14:29:14.621Z,13.70
2018-01-07T14:31:44.592Z,13.68
2018-01-07T14:34:14.572Z,13.60
2018-01-07T14:36:46.588Z,13.58
2018-01-07T14:39:17.116Z,13.51
2018-01-07T14:41:46.559Z,13.43
2018-01-07T14:44:18.021Z,13.39
2018-01-07T14:46:47.782Z,13.35
2018-01-07T14:49:16.816Z,13.28
2018-01-07T14:51:46.050Z,13.18
2018-01-07T14:54:14.936Z,13.12
2018-01-07T14:56:44.872Z,13.00
2018-01-07T14:59:14.355Z,12.93
2018-01-07T15:01:44.793Z,12.78
2018-01-07T15:04:14.330Z,12.65
2018-01-07T15:06:43.701Z,12.56
2018-01-07T15:09:12.824Z,12.46
2018-01-07T15:11:43.271Z,12.38
2018-01-07T15:14:12.608Z,12.36
2018-01-07T15:16:42.158Z,12.26
2018-01-07T15:19:15.094Z,12.20
2018-01-07T15:21:44.319Z,12.17
2018-01-07T15:24:13.483Z,12.20
2018-01-07T15:26:43.579Z,12.18
2018-01-07T15:29:13.055Z,12.09
2018-01-07T15:31:41.956Z,12.10
2018-01-07T15:34:11.163Z,12.01
2018-01-07T15:36:40.991Z,11.88
2018-01-07T15:39:10.543Z,11.83
2018-01-07T15:41:45.512Z,11.68
2018-01-07T15:44:14.975Z,11.55
2018-01-07T15:46:45.251Z,11.45
2018-01-07T15:49:20.073Z,11.34
2018-01-07T15:51:49.406Z,11.26
2018-01-07T15:54:19.554Z,11.20
2018-01-07T15:56:49.817Z,11.19
2018-01-07T15:59:19.221Z,11.06
2018-01-07T16:01:48.643Z,11.04
2018-01-07T16:04:18.027Z,11.02
2018-01-07T16:06:47.588Z,10.97
2018-01-07T16:09:16.717Z,10.92
2018-01-07T16:11:46.749Z,10.89
2018-01-07T16:14:16.064Z,10.82
2018-01-07T16:16:45.541Z,10.79
2018-01-07T16:19:16.773Z,10.74
2018-01-07T16:21:45.909Z,10.69
2018-01-07T16:24:15.325Z,10.63
2018-01-07T16:26:46.475Z,10.61
2018-01-07T16:29:15.908Z,10.66
2018-01-07T16:31:44.966Z,10.60
2018-01-07T16:34:15.878Z,10.60
2018-01-07T16:36:45.274Z,10.59
2018-01-07T16:39:16.193Z,10.53
2018-01-07T16:41:46.392Z,10.50
2018-01-07T16:44:15.649Z,10.44
2018-01-07T16:46:45.260Z,10.42
2018-01-07T16:49:14.771Z,10.38
2018-01-07T16:51:44.892Z,10.33
2018-01-07T16:54:14.096Z,10.36
2018-01-07T16:56:43.176Z,10.37
2018-01-07T16:59:12.687Z,10.42
2018-01-07T17:01:41.997Z,10.44
2018-01-07T17:04:12.865Z,10.43
2018-01-07T17:06:41.761Z,10.51
2018-01-07T17:09:10.772Z,10.58
2018-01-07T17:11:39.748Z,10.65
2018-01-07T17:14:08.655Z,10.67
2018-01-07T17:16:37.674Z,10.67
2018-01-07T17:19:06.634Z,10.68
2018-01-07T17:21:35.559Z,10.59
2018-01-07T17:24:04.531Z,10.55
2018-01-07T17:27:08.231Z,10.54
2018-01-07T17:29:38.640Z,10.48
2018-01-07T17:32:08.769Z,10.46
2018-01-07T17:34:38.184Z,10.43
2018-01-07T17:37:07.371Z,10.42
2018-01-07T17:39:36.752Z,10.43
2018-01-07T17:42:06.018Z,10.42
2018-01-07T17:44:35.131Z,10.46
2018-01-07T17:47:05.243Z,10.47
2018-01-07T17:49:36.801Z,10.48
2018-01-07T17:52:06.350Z,10.48
2018-01-07T17:54:35.760Z,10.49
2018-01-07T17:57:05.149Z,10.50
2018-01-07T17:59:35.055Z,10.47
2018-01-07T18:02:05.414Z,10.50
2018-01-07T18:04:34.604Z,10.51
2018-01-07T18:07:04.836Z,10.59
2018-01-07T18:09:34.007Z,10.64
2018-01-07T18:12:03.683Z,10.72
2018-01-07T18:14:34.541Z,10.71
2018-01-07T18:17:04.684Z,10.77
2018-01-07T18:19:34.805Z,10.82
2018-01-07T18:22:05.018Z,10.92
2018-01-07T18:24:34.343Z,10.92
2018-01-07T18:27:03.536Z,10.88
2018-01-07T18:29:37.284Z,10.90
2018-01-07T18:32:06.282Z,10.91
2018-01-07T18:34:36.402Z,10.95
2018-01-07T18:37:05.697Z,10.97
2018-01-07T18:39:35.443Z,10.93
2018-01-07T18:42:04.713Z,10.96
2018-01-07T18:44:34.058Z,10.92
2018-01-07T18:47:03.172Z,10.95
2018-01-07T18:49:33.634Z,11.07
2018-01-07T18:52:03.034Z,11.10
2018-01-07T18:54:32.857Z,11.17
2018-01-07T18:57:01.984Z,11.26
2018-01-07T18:59:31.110Z,11.30
2018-01-07T19:02:01.185Z,11.35
2018-01-07T19:04:30.245Z,11.36
2018-01-07T19:07:00.149Z,11.40
2018-01-07T19:09:29.973Z,11.36
2018-01-07T19:11:58.906Z,11.40
2018-01-07T19:14:28.066Z,11.35
2018-01-07T19:16:57.145Z,11.37
2018-01-07T19:19:26.994Z,11.41
2018-01-07T19:21:56.976Z,11.44
2018-01-07T19:24:27.434Z,11.47
2018-01-07T19:26:56.534Z,11.52
2018-01-07T19:29:28.293Z,11.56
2018-01-07T19:31:57.527Z,11.55
2018-01-07T19:34:26.479Z,11.54
2018-01-07T19:36:55.502Z,11.53
2018-01-07T19:39:24.689Z,11.49
2018-01-07T19:41:53.867Z,11.50
2018-01-07T19:44:25.254Z,11.54
2018-01-07T19:46:54.466Z,11.50
2018-01-07T19:49:24.268Z,11.54
2018-01-07T19:51:55.181Z,11.56
2018-01-07T19:54:24.111Z,11.55
2018-01-07T19:56:52.978Z,11.57
2018-01-07T19:59:24.404Z,11.58
2018-01-07T20:01:54.558Z,11.52
2018-01-07T20:04:23.848Z,11.51
2018-01-07T20:06:52.907Z,11.45
2018-01-07T20:09:22.185Z,11.47
2018-01-07T20:11:52.435Z,11.45
2018-01-07T20:14:23.277Z,11.39
2018-01-07T20:16:52.577Z,11.38
2018-01-07T20:19:21.697Z,11.40
2018-01-07T20:21:51.766Z,11.36
2018-01-07T20:24:21.148Z,11.30
2018-01-07T20:26:50.401Z,11.30
2018-01-07T20:29:20.319Z,11.24
2018-01-07T20:31:49.155Z,11.22
2018-01-07T20:34:17.999Z,11.21
2018-01-07T20:36:49.390Z,11.28
2018-01-07T20:39:19.437Z,11.35
2018-01-07T20:41:48.542Z,11.29
2018-01-07T20:44:17.471Z,11.29
2018-01-07T20:46:46.517Z,11.27
2018-01-07T20:49:15.494Z,11.33
2018-01-07T20:51:44.922Z,11.28
2018-01-07T20:54:13.934Z,11.30
2018-01-07T20:56:42.910Z,11.16
2018-01-07T20:59:12.185Z,11.09
2018-01-07T21:01:41.067Z,11.13
2018-01-07T21:04:10.095Z,11.13
2018-01-07T21:06:42.640Z,11.14
2018-01-07T21:09:11.574Z,11.13
2018-01-07T21:11:40.581Z,11.08
2018-01-07T21:14:09.526Z,11.17
2018-01-07T21:16:38.426Z,11.32
2018-01-07T21:19:07.367Z,11.47
2018-01-07T21:21:36.482Z,11.51
2018-01-07T21:24:05.458Z,11.62
2018-01-07T21:26:34.334Z,11.68
2018-01-07T21:29:04.838Z,11.71
2018-01-07T21:31:33.688Z,11.86
2018-01-07T21:34:02.516Z,12.00
2018-01-07T21:36:31.526Z,12.07
2018-01-07T21:39:00.404Z,12.12
2018-01-07T21:41:29.282Z,12.16
2018-01-07T21:43:59.061Z,12.24
2018-01-07T21:46:27.949Z,12.24
2018-01-07T21:48:56.840Z,12.29
2018-01-07T21:51:25.864Z,12.28
2018-01-07T21:53:54.717Z,12.33
2018-01-07T21:56:23.639Z,12.33
2018-01-07T21:58:52.561Z,12.28
2018-01-07T22:01:33.338Z,12.21
2018-01-07T22:04:02.193Z,12.19
2018-01-07T22:06:43.122Z,12.18
2018-01-07T22:09:12.991Z,12.20
2018-01-07T22:11:43.176Z,12.19
2018-01-07T22:14:12.532Z,12.30
2018-01-07T22:16:42.466Z,12.33
2018-01-07T22:19:11.758Z,12.39
2018-01-07T22:21:41.080Z,12.39
2018-01-07T22:24:11.391Z,12.38
2018-01-07T22:26:40.684Z,12.35
2018-01-07T22:29:11.554Z,12.33
2018-01-07T22:31:40.723Z,12.27
2018-01-07T22:34:10.080Z,12.23
2018-01-07T22:36:40.086Z,12.15
2018-01-07T22:39:09.107Z,12.13
2018-01-07T22:41:38.392Z,12.09
2018-01-07T22:44:09.198Z,11.99
2018-01-07T22:46:38.625Z,11.99
2018-01-07T22:49:07.652Z,11.99
2018-01-07T22:51:36.748Z,12.00
2018-01-07T22:54:05.650Z,12.05
2018-01-07T22:56:34.782Z,12.11
2018-01-07T22:59:04.129Z,12.08
2018-01-07T23:01:33.091Z,12.12
2018-01-07T23:04:02.004Z,12.11
2018-01-07T23:06:31.783Z,12.10
2018-01-07T23:09:00.868Z,12.18
2018-01-07T23:11:29.775Z,12.11
2018-01-07T23:13:58.713Z,12.09
2018-01-07T23:16:27.808Z,12.13
2018-01-07T23:18:56.826Z,12.13
2018-01-07T23:21:25.916Z,12.12
2018-01-07T23:23:54.844Z,12.12
2018-01-07T23:26:23.796Z,12.10
2018-01-07T23:28:53.141Z,12.17
2018-01-07T23:31:22.017Z,12.09
2018-01-07T23:33:51.032Z,12.10
2018-01-07T23:36:21.141Z,12.05
2018-01-07T23:38:50.159Z,12.05
2018-01-07T23:41:19.134Z,12.04
2018-01-07T23:43:48.021Z,12.05
2018-01-07T23:46:16.911Z,12.07
2018-01-07T23:48:45.855Z,12.02
2018-01-07T23:51:14.750Z,12.02
2018-01-07T23:53:43.627Z,12.02
2018-01-07T23:56:12.510Z,12.03
2018-01-07T23:58:43.387Z,12.00
